Time;durP1;ratioP1;P1;durP2;ratioP2;P2;SDS_P1;SDS_P2;PMS_P1;PMS_P2;Temp;Humidity;BMP_temperature;BMP_pressure;BME280_temperature;BME280_humidity;BME280_pressure;Samples;Min_cycle;Max_cycle;Signal;HPM_P1;HPM_P2
2022/06/17 00:01:06;;;;;;;8.30;5.18;;;15.70;99.90;;;;;;5074848;28;20434;-72
2022/06/17 00:03:34;;;;;;;7.95;5.30;;;15.70;99.90;;;;;;5074879;28;20141;-72
2022/06/17 00:06:03;;;;;;;8.52;5.43;;;15.60;99.90;;;;;;5074486;28;20056;-71
2022/06/17 00:08:39;;;;;;;9.32;5.53;;;15.60;99.90;;;;;;5074752;28;20027;-72
2022/06/17 00:11:13;;;;;;;12.52;7.22;;;15.60;99.90;;;;;;5074742;28;20081;-71
2022/06/17 00:13:39;;;;;;;12.18;6.93;;;15.70;99.90;;;;;;5074977;28;20484;-72
2022/06/17 00:16:13;;;;;;;13.70;7.30;;;15.60;99.90;;;;;;5074536;28;20032;-72
2022/06/17 00:18:39;;;;;;;9.05;6.88;;;15.60;99.90;;;;;;5074885;28;20033;-71
2022/06/17 00:21:05;;;;;;;9.68;6.47;;;15.60;99.90;;;;;;5074569;28;20354;-71
2022/06/17 00:23:31;;;;;;;9.38;6.80;;;15.60;99.90;;;;;;5074121;28;20043;-72
2022/06/17 00:25:56;;;;;;;8.57;6.85;;;15.60;99.90;;;;;;5062528;28;20376;-72
2022/06/17 00:28:23;;;;;;;10.13;7.10;;;15.60;99.90;;;;;;5054380;28;20497;-71
2022/06/17 00:30:50;;;;;;;10.55;7.10;;;15.60;99.90;;;;;;5054387;28;20021;-72
2022/06/17 00:33:18;;;;;;;12.77;7.35;;;15.60;99.90;;;;;;5054603;28;20055;-71
2022/06/17 00:35:50;;;;;;;10.43;7.20;;;15.60;99.90;;;;;;5054253;28;20025;-71
2022/06/17 00:38:21;;;;;;;12.57;7.80;;;15.60;99.90;;;;;;5054008;28;20057;-71
2022/06/17 00:40:48;;;;;;;11.50;7.35;;;15.60;99.90;;;;;;5054783;28;20017;-72
2022/06/17 00:43:35;;;;;;;8.52;6.95;;;15.60;99.90;;;;;;5036165;28;20098;-72
2022/06/17 00:46:07;;;;;;;8.70;6.50;;;15.60;99.90;;;;;;5054326;28;20028;-72
2022/06/17 00:48:39;;;;;;;8.95;6.47;;;15.60;99.90;;;;;;5054343;28;20143;-72
2022/06/17 00:51:23;;;;;;;11.70;7.90;;;15.60;99.90;;;;;;5053763;28;20096;-71
2022/06/17 00:54:00;;;;;;;14.07;10.00;;;15.60;99.90;;;;;;5036045;28;20017;-71
2022/06/17 00:56:32;;;;;;;16.35;7.85;;;15.60;99.90;;;;;;5069668;28;20052;-71
2022/06/17 00:59:08;;;;;;;11.73;8.15;;;15.60;99.90;;;;;;5055965;28;20023;-72
2022/06/17 01:01:50;;;;;;;16.17;9.27;;;15.60;99.90;;;;;;5074064;28;20387;-71
2022/06/17 01:04:20;;;;;;;14.50;8.63;;;15.60;99.90;;;;;;5053868;28;20124;-72
2022/06/17 01:07:12;;;;;;;13.48;7.97;;;15.60;99.90;;;;;;5053719;28;20026;-71
2022/06/17 01:09:57;;;;;;;10.88;7.78;;;15.60;99.90;;;;;;5053705;28;20531;-72
2022/06/17 01:12:30;;;;;;;11.65;7.43;;;15.50;99.90;;;;;;5053684;28;20036;-72
2022/06/17 01:14:57;;;;;;;9.73;7.18;;;15.50;99.90;;;;;;5053923;28;20075;-72
2022/06/17 01:17:24;;;;;;;10.02;7.13;;;15.40;99.90;;;;;;5035698;28;20029;-72
2022/06/17 01:19:59;;;;;;;8.68;6.43;;;15.40;99.90;;;;;;5053494;28;20064;-72
2022/06/17 01:22:41;;;;;;;7.40;6.38;;;15.40;99.90;;;;;;5053273;28;20025;-71
2022/06/17 01:25:17;;;;;;;11.35;6.35;;;15.40;99.90;;;;;;5058325;28;20028;-72
2022/06/17 01:27:46;;;;;;;9.77;6.30;;;15.30;99.90;;;;;;5073756;28;20044;-73
2022/06/17 01:30:19;;;;;;;9.45;6.35;;;15.30;99.90;;;;;;5073098;28;20047;-72
2022/06/17 01:33:11;;;;;;;8.13;6.20;;;15.40;99.90;;;;;;5071322;28;20067;-71
2022/06/17 01:35:52;;;;;;;8.07;5.97;;;15.40;99.90;;;;;;5062310;28;20476;-71
2022/06/17 01:38:20;;;;;;;8.32;5.85;;;15.40;99.90;;;;;;5071041;28;20021;-71
2022/06/17 01:40:45;;;;;;;9.52;6.18;;;15.30;99.90;;;;;;5071857;28;20021;-72
2022/06/17 01:43:15;;;;;;;7.78;6.25;;;15.40;99.90;;;;;;5073201;28;20499;-72
2022/06/17 01:45:45;;;;;;;10.40;6.20;;;15.40;99.90;;;;;;5073483;28;20036;-72
2022/06/17 01:48:14;;;;;;;10.87;7.70;;;15.40;99.90;;;;;;5073323;28;20051;-72
2022/06/17 01:50:41;;;;;;;11.95;7.50;;;15.40;99.90;;;;;;5073233;28;20056;-72
2022/06/17 01:53:15;;;;;;;10.05;6.60;;;15.40;99.90;;;;;;5073002;28;20090;-72
2022/06/17 01:55:47;;;;;;;6.75;5.60;;;15.40;99.90;;;;;;5073170;28;20028;-72
2022/06/17 01:58:44;;;;;;;7.00;5.50;;;15.30;99.90;;;;;;5073198;28;20032;-72
2022/06/17 02:01:12;;;;;;;8.40;5.78;;;15.30;99.90;;;;;;5060040;28;20037;-72
2022/06/17 02:03:52;;;;;;;8.35;5.70;;;15.30;99.90;;;;;;5073095;28;20025;-72
2022/06/17 02:06:58;;;;;;;7.27;5.33;;;15.30;99.90;;;;;;5073437;28;20028;-71
2022/06/17 02:09:24;;;;;;;7.20;5.68;;;15.30;99.90;;;;;;5065025;28;20039;-72
2022/06/17 02:11:50;;;;;;;8.13;6.43;;;15.30;99.90;;;;;;5073006;28;20052;-72
2022/06/17 02:14:16;;;;;;;9.23;7.00;;;15.20;99.90;;;;;;5072950;28;20039;-72
2022/06/17 02:16:47;;;;;;;9.40;6.57;;;15.20;99.90;;;;;;5072939;28;20032;-72
2022/06/17 02:19:13;;;;;;;8.07;6.20;;;15.20;99.90;;;;;;5073196;28;20384;-72
2022/06/17 02:21:43;;;;;;;6.93;5.68;;;15.20;99.90;;;;;;5072793;28;20028;-71
2022/06/17 02:24:10;;;;;;;9.05;6.10;;;15.20;99.90;;;;;;5073098;28;20021;-72
2022/06/17 02:26:38;;;;;;;7.70;6.03;;;15.10;99.90;;;;;;5072806;28;20044;-71
2022/06/17 02:29:08;;;;;;;7.85;5.70;;;15.20;99.90;;;;;;5072814;28;20021;-72
2022/06/17 02:31:35;;;;;;;8.48;5.25;;;15.10;99.90;;;;;;5073072;28;20028;-72
2022/06/17 02:34:03;;;;;;;5.82;4.97;;;15.10;99.90;;;;;;5073049;28;20067;-72
2022/06/17 02:36:42;;;;;;;8.93;6.35;;;15.10;99.90;;;;;;5072428;28;20423;-71
2022/06/17 02:39:12;;;;;;;10.32;7.78;;;15.10;99.90;;;;;;5072775;28;20524;-71
2022/06/17 02:41:39;;;;;;;9.50;6.93;;;15.10;99.90;;;;;;5072640;28;20538;-72
2022/06/17 02:44:14;;;;;;;9.10;6.78;;;15.00;99.90;;;;;;5073235;28;20020;-71
2022/06/17 02:46:41;;;;;;;8.65;6.22;;;15.00;99.90;;;;;;5074025;28;20066;-72
2022/06/17 02:49:18;;;;;;;10.30;6.90;;;15.00;99.90;;;;;;5076272;28;20099;-72
2022/06/17 02:51:44;;;;;;;12.93;7.90;;;14.90;99.90;;;;;;5058096;28;20024;-72
2022/06/17 02:54:18;;;;;;;10.85;7.18;;;14.90;99.90;;;;;;5076096;28;20024;-72
2022/06/17 02:56:51;;;;;;;9.65;7.03;;;14.90;99.90;;;;;;5076668;28;20024;-72
2022/06/17 02:59:32;;;;;;;12.38;7.65;;;15.00;99.90;;;;;;5076419;28;20423;-72
2022/06/17 03:02:09;;;;;;;9.73;6.93;;;15.00;99.90;;;;;;5076269;28;20025;-72
2022/06/17 03:04:34;;;;;;;7.88;6.03;;;15.00;99.90;;;;;;5076046;28;20036;-72
2022/06/17 03:07:01;;;;;;;8.13;5.90;;;15.00;99.90;;;;;;5076014;28;20017;-72
2022/06/17 03:09:29;;;;;;;6.93;5.25;;;15.00;99.90;;;;;;5075873;28;20469;-72
2022/06/17 03:12:04;;;;;;;6.18;5.05;;;15.00;99.90;;;;;;5075924;28;20044;-72
2022/06/17 03:14:35;;;;;;;6.18;4.38;;;15.00;99.90;;;;;;5076137;28;20365;-72
2022/06/17 03:17:05;;;;;;;5.85;4.60;;;14.90;99.90;;;;;;5076893;28;20036;-72
2022/06/17 03:19:35;;;;;;;6.68;4.70;;;14.90;99.90;;;;;;5076349;28;20039;-72
2022/06/17 03:22:05;;;;;;;6.53;4.80;;;14.80;99.90;;;;;;5075632;28;20035;-71
2022/06/17 03:24:42;;;;;;;5.75;4.55;;;14.90;99.90;;;;;;5075493;28;20013;-72
2022/06/17 03:27:17;;;;;;;4.93;4.30;;;14.80;99.90;;;;;;5075938;28;20012;-72
2022/06/17 03:29:45;;;;;;;4.72;3.95;;;14.70;99.90;;;;;;5075910;28;20040;-72
2022/06/17 03:32:18;;;;;;;5.60;4.25;;;14.70;99.90;;;;;;5075565;28;20028;-72
2022/06/17 03:34:51;;;;;;;4.43;3.78;;;14.70;99.90;;;;;;5075707;28;20035;-72
2022/06/17 03:37:22;;;;;;;5.13;4.03;;;14.70;99.90;;;;;;5075198;28;20096;-71
2022/06/17 03:39:52;;;;;;;7.22;4.72;;;14.70;99.90;;;;;;5075665;28;20029;-72
2022/06/17 03:42:30;;;;;;;4.95;4.28;;;14.60;99.90;;;;;;5076150;28;20034;-72
2022/06/17 03:45:12;;;;;;;6.28;4.25;;;14.60;99.90;;;;;;5057251;28;20361;-72
2022/06/17 03:47:44;;;;;;;6.22;4.60;;;14.50;99.90;;;;;;5075309;28;20012;-72
2022/06/17 03:50:29;;;;;;;5.60;4.43;;;14.50;99.90;;;;;;5075747;28;20027;-72
2022/06/17 03:53:01;;;;;;;6.07;4.40;;;14.50;99.90;;;;;;5075034;28;20063;-71
2022/06/17 03:55:29;;;;;;;5.85;5.05;;;14.50;99.90;;;;;;5073501;28;20029;-71
2022/06/17 03:57:57;;;;;;;7.65;5.70;;;14.40;99.90;;;;;;5067725;28;20127;-72
2022/06/17 04:00:31;;;;;;;8.07;5.45;;;14.40;99.90;;;;;;5068491;28;20044;-71
2022/06/17 04:03:00;;;;;;;8.77;6.13;;;14.40;99.90;;;;;;5073543;28;20384;-71
2022/06/17 04:05:27;;;;;;;8.15;6.45;;;14.40;99.90;;;;;;5074540;28;20032;-71
2022/06/17 04:07:52;;;;;;;6.80;5.65;;;14.40;99.90;;;;;;5074375;28;20025;-71
2022/06/17 04:10:24;;;;;;;10.00;6.50;;;14.30;99.90;;;;;;5074277;28;20070;-71
2022/06/17 04:12:52;;;;;;;11.15;7.30;;;14.30;99.90;;;;;;5074555;28;20027;-71
2022/06/17 04:15:36;;;;;;;12.70;7.25;;;14.40;99.90;;;;;;5056383;28;20029;-71
2022/06/17 04:18:02;;;;;;;11.30;8.02;;;14.40;99.90;;;;;;5074196;28;20028;-71
2022/06/17 04:20:54;;;;;;;16.13;8.63;;;14.50;99.90;;;;;;5056497;28;20035;-72
2022/06/17 04:23:29;;;;;;;12.73;8.27;;;14.50;99.90;;;;;;5074199;28;20111;-71
2022/06/17 04:26:29;;;;;;;12.23;7.78;;;14.60;99.90;;;;;;5074224;28;20016;-72
2022/06/17 04:29:00;;;;;;;9.75;7.00;;;14.60;99.90;;;;;;5074227;28;20044;-72
2022/06/17 04:31:28;;;;;;;8.02;6.70;;;14.70;99.90;;;;;;5074304;28;20020;-72
2022/06/17 04:34:02;;;;;;;8.93;6.97;;;14.70;99.90;;;;;;5074489;28;20035;-71
2022/06/17 04:36:33;;;;;;;8.38;6.43;;;14.70;99.90;;;;;;5074175;28;20111;-72
2022/06/17 04:38:59;;;;;;;;;;;14.70;99.90;;;;;;5074416;28;20046;-72
2022/06/17 04:41:30;;;;;;;8.98;5.97;;;14.70;99.90;;;;;;5074082;28;20298;-71
2022/06/17 04:43:59;;;;;;;12.77;7.88;;;14.70;99.90;;;;;;5074326;28;20045;-71
2022/06/17 04:46:35;;;;;;;10.80;7.85;;;14.70;99.90;;;;;;5073943;28;20099;-71
2022/06/17 04:49:02;;;;;;;7.43;6.40;;;14.70;99.90;;;;;;5074329;28;20391;-71
2022/06/17 04:51:29;;;;;;;8.65;6.88;;;14.70;99.90;;;;;;5073943;28;20021;-72
2022/06/17 04:53:56;;;;;;;8.02;5.80;;;14.70;99.90;;;;;;5073710;28;20028;-71
2022/06/17 04:56:36;;;;;;;9.45;6.85;;;14.70;99.90;;;;;;5055837;28;20032;-71
2022/06/17 04:59:35;;;;;;;9.43;7.30;;;14.60;99.90;;;;;;5074217;28;20453;-71
2022/06/17 05:02:05;;;;;;;10.43;7.85;;;14.50;99.90;;;;;;5073344;28;20064;-72
2022/06/17 05:04:31;;;;;;;9.45;7.05;;;14.50;99.90;;;;;;5073561;28;20032;-71
2022/06/17 05:06:57;;;;;;;9.45;7.47;;;14.50;99.90;;;;;;5073486;28;20028;-71
2022/06/17 05:09:37;;;;;;;10.63;7.93;;;14.50;99.90;;;;;;5073517;28;20025;-72
2022/06/17 05:12:15;;;;;;;12.20;8.20;;;14.60;99.90;;;;;;5073965;28;20028;-72
2022/06/17 05:14:53;;;;;;;9.27;7.70;;;14.60;99.90;;;;;;5073841;28;20439;-72
2022/06/17 05:17:20;;;;;;;11.55;8.95;;;14.70;99.90;;;;;;5073889;28;20439;-72
2022/06/17 05:19:48;;;;;;;12.30;8.75;;;14.80;99.90;;;;;;5073598;28;20021;-72
2022/06/17 05:22:29;;;;;;;8.95;7.18;;;14.80;99.90;;;;;;5073164;28;20055;-71
2022/06/17 05:24:55;;;;;;;6.97;6.18;;;14.80;99.90;;;;;;5073643;28;20021;-71
2022/06/17 05:27:20;;;;;;;10.82;8.55;;;14.80;99.90;;;;;;5073497;28;20103;-72
2022/06/17 05:29:46;;;;;;;11.85;8.90;;;14.80;99.90;;;;;;5073711;28;20048;-72
2022/06/17 05:32:13;;;;;;;11.18;7.00;;;14.90;99.90;;;;;;5073462;28;20068;-71
2022/06/17 05:34:39;;;;;;;10.10;7.93;;;14.90;99.90;;;;;;5073351;28;20056;-72
2022/06/17 05:37:05;;;;;;;8.35;6.90;;;14.90;99.90;;;;;;5073664;28;20046;-71
2022/06/17 05:39:30;;;;;;;9.00;7.15;;;14.90;99.90;;;;;;5073358;28;20021;-72
2022/06/17 05:41:56;;;;;;;8.23;6.68;;;15.00;99.90;;;;;;5073527;28;20054;-72
2022/06/17 05:44:22;;;;;;;8.40;6.38;;;15.00;99.90;;;;;;5073203;28;20025;-72
2022/06/17 05:46:47;;;;;;;10.48;8.55;;;15.00;99.90;;;;;;5073556;28;20060;-71
2022/06/17 05:49:14;;;;;;;10.38;8.15;;;15.00;99.90;;;;;;5073835;28;20074;-72
2022/06/17 05:51:40;;;;;;;9.85;7.80;;;15.10;99.90;;;;;;5073218;28;20025;-71
2022/06/17 05:54:05;;;;;;;10.77;8.15;;;15.10;99.90;;;;;;5072873;28;20088;-71
2022/06/17 05:56:31;;;;;;;;;;;15.10;99.90;;;;;;5071962;28;20063;-71
2022/06/17 05:58:56;;;;;;;;;;;15.00;99.90;;;;;;5070882;28;20045;-71
2022/06/17 06:01:22;;;;;;;;;;;15.10;99.90;;;;;;5072992;28;19909;-71
2022/06/17 06:03:47;;;;;;;;;;;15.20;99.90;;;;;;5072593;28;20022;-71
2022/06/17 06:06:13;;;;;;;;;;;15.20;99.90;;;;;;5071969;28;19913;-71
2022/06/17 06:08:38;;;;;;;;;;;15.20;99.90;;;;;;5071649;28;19904;-71
2022/06/17 06:11:05;;;;;;;;;;;15.20;99.90;;;;;;5071942;28;19904;-71
2022/06/17 06:13:30;;;;;;;;;;;15.20;99.90;;;;;;5072220;28;19949;-72
2022/06/17 06:15:58;;;;;;;;;;;15.30;99.90;;;;;;5070858;28;20415;-72
2022/06/17 06:18:27;;;;;;;;;;;15.40;99.90;;;;;;5072765;28;19983;-71
2022/06/17 06:20:52;;;;;;;;;;;15.50;99.90;;;;;;5072642;28;19908;-71
2022/06/17 06:23:18;;;;;;;;;;;15.50;99.90;;;;;;5075528;28;19912;-71
2022/06/17 06:25:44;;;;;;;;;;;15.60;99.90;;;;;;5076476;28;19911;-71
2022/06/17 06:28:20;;;;;;;;;;;15.60;99.90;;;;;;5076183;28;19904;-72
2022/06/17 06:31:12;;;;;;;;;;;15.70;99.90;;;;;;5076116;28;20356;-71
2022/06/17 06:33:40;;;;;;;;;;;15.70;99.90;;;;;;5073026;28;19904;-72
2022/06/17 06:36:06;;;;;;;;;;;15.80;99.90;;;;;;5076307;28;19904;-72
2022/06/17 06:38:31;;;;;;;;;;;15.90;99.90;;;;;;5076072;28;19954;-71
2022/06/17 06:40:57;;;;;;;;;;;15.90;99.90;;;;;;5076788;28;19908;-71
2022/06/17 06:43:22;;;;;;;;;;;16.00;99.90;;;;;;5075814;28;19958;-72
2022/06/17 06:45:49;;;;;;;;;;;16.00;99.90;;;;;;5075660;28;19905;-72
2022/06/17 06:48:17;;;;;;;;;;;16.10;99.90;;;;;;5076213;28;20016;-71
2022/06/17 06:50:43;;;;;;;;;;;16.00;99.90;;;;;;5075606;28;19919;-72
2022/06/17 06:53:08;;;;;;;;;;;16.10;99.90;;;;;;5056996;28;19904;-71
2022/06/17 06:55:34;;;;;;;;;;;16.30;99.90;;;;;;5074808;28;19912;-72
2022/06/17 06:58:06;;;;;;;;;;;16.40;99.90;;;;;;5074728;28;19912;-71
2022/06/17 07:00:34;;;;;;;;;;;16.50;99.90;;;;;;5074849;28;20421;-71
2022/06/17 07:02:59;;;;;;;;;;;16.70;99.90;;;;;;5057111;28;20280;-72
2022/06/17 07:05:25;;;;;;;12.05;8.35;;;16.90;99.90;;;;;;5075774;28;20062;-72
2022/06/17 07:07:51;;;;;;;10.63;8.07;;;17.10;99.90;;;;;;5076324;28;20050;-71
2022/06/17 07:10:24;;;;;;;9.82;8.25;;;17.30;99.90;;;;;;5075949;28;20017;-72
2022/06/17 07:12:50;;;;;;;10.25;8.27;;;17.40;99.90;;;;;;5075882;28;20031;-71
2022/06/17 07:15:17;;;;;;;8.63;6.82;;;17.50;99.90;;;;;;5075946;28;20415;-72
2022/06/17 07:17:54;;;;;;;9.70;7.18;;;17.60;99.90;;;;;;5057836;28;20062;-71
2022/06/17 07:20:21;;;;;;;12.60;7.53;;;17.70;99.90;;;;;;5057908;28;20097;-72
2022/06/17 07:22:47;;;;;;;7.95;6.85;;;17.80;99.90;;;;;;5075841;28;20029;-71
2022/06/17 07:25:12;;;;;;;9.02;7.35;;;18.00;99.90;;;;;;5075745;28;20023;-71
2022/06/17 07:27:38;;;;;;;8.30;6.45;;;18.30;99.90;;;;;;5075690;28;20472;-71
2022/06/17 07:30:05;;;;;;;7.70;6.43;;;18.50;99.90;;;;;;5075713;28;20488;-71
2022/06/17 07:32:30;;;;;;;8.52;6.05;;;18.70;99.90;;;;;;5075508;28;20028;-71
2022/06/17 07:34:56;;;;;;;6.55;5.63;;;18.70;99.90;;;;;;5074831;28;20526;-71
2022/06/17 07:40:06;;;;;;;9.00;5.88;;;19.00;99.90;;;;;;5075750;28;20090;-71
2022/06/17 07:42:38;;;;;;;7.05;5.63;;;19.20;99.90;;;;;;5075867;28;20077;-71
2022/06/17 07:45:07;;;;;;;10.75;6.25;;;19.40;99.90;;;;;;5075334;28;20024;-71
2022/06/17 07:47:32;;;;;;;7.53;5.18;;;19.50;99.90;;;;;;5075307;28;20045;-71
2022/06/17 07:49:58;;;;;;;7.68;5.55;;;19.70;99.90;;;;;;5075505;28;20020;-71
2022/06/17 07:52:24;;;;;;;9.18;7.13;;;19.90;99.90;;;;;;5074932;28;20032;-71
2022/06/17 07:54:50;;;;;;;9.85;6.15;;;20.10;99.90;;;;;;5057065;28;20024;-72
2022/06/17 07:57:16;;;;;;;7.80;5.57;;;20.20;99.90;;;;;;5075156;28;20025;-72
2022/06/17 07:59:42;;;;;;;7.47;5.47;;;20.30;99.90;;;;;;5075101;28;20017;-72
2022/06/17 08:02:07;;;;;;;6.60;5.53;;;20.40;99.90;;;;;;5074884;28;20021;-71
2022/06/17 08:04:34;;;;;;;8.23;4.95;;;20.40;99.90;;;;;;5074801;28;20070;-71
2022/06/17 08:07:00;;;;;;;8.90;5.80;;;20.40;99.90;;;;;;5075689;28;20428;-71
2022/06/17 08:09:26;;;;;;;7.30;4.88;;;20.50;99.90;;;;;;5074579;28;20052;-72
2022/06/17 08:11:52;;;;;;;6.65;4.85;;;20.70;99.90;;;;;;5074793;28;20043;-71
2022/06/17 08:14:18;;;;;;;8.52;5.18;;;20.90;99.90;;;;;;5074614;28;20033;-72
2022/06/17 08:16:45;;;;;;;6.35;4.63;;;21.10;99.90;;;;;;5074615;28;20032;-71
2022/06/17 08:19:11;;;;;;;10.10;5.38;;;21.30;99.90;;;;;;5074577;28;20024;-72
2022/06/17 08:21:36;;;;;;;8.27;5.18;;;21.50;99.90;;;;;;5074393;28;20392;-71
2022/06/17 08:24:02;;;;;;;7.72;4.80;;;21.70;99.90;;;;;;5074284;28;20028;-71
2022/06/17 08:26:28;;;;;;;7.53;4.85;;;21.90;99.90;;;;;;5074387;28;20020;-71
2022/06/17 08:28:54;;;;;;;6.10;4.53;;;22.20;99.90;;;;;;5075015;28;20017;-71
2022/06/17 08:31:20;;;;;;;6.82;4.75;;;22.30;99.90;;;;;;5074890;28;20430;-71
2022/06/17 08:33:46;;;;;;;10.32;4.88;;;22.40;99.90;;;;;;5074288;28;20591;-71
2022/06/17 08:36:15;;;;;;;7.88;5.20;;;22.30;99.90;;;;;;5074196;28;20020;-71
2022/06/17 08:38:53;;;;;;;8.02;5.45;;;22.20;99.90;;;;;;5074311;28;20026;-71
2022/06/17 08:41:28;;;;;;;5.78;4.75;;;22.10;99.90;;;;;;5074490;28;20465;-71
2022/06/17 08:44:02;;;;;;;5.95;4.85;;;22.10;99.90;;;;;;5074082;28;20036;-71
2022/06/17 08:46:39;;;;;;;6.88;5.05;;;22.20;99.90;;;;;;5074038;28;20025;-71
2022/06/17 08:49:39;;;;;;;6.20;4.45;;;22.20;99.90;;;;;;5074034;28;20025;-71
2022/06/17 08:52:54;;;;;;;9.65;5.38;;;22.20;99.90;;;;;;5074201;28;20155;-71
2022/06/17 08:55:42;;;;;;;7.03;5.00;;;22.30;99.90;;;;;;5055817;28;20036;-71
2022/06/17 08:58:14;;;;;;;8.55;4.30;;;22.50;99.90;;;;;;5073812;28;20029;-71
2022/06/17 09:00:55;;;;;;;6.85;4.55;;;22.80;99.90;;;;;;5074074;28;20031;-71
2022/06/17 09:03:39;;;;;;;5.30;3.95;;;22.80;98.30;;;;;;5074319;28;20031;-71
2022/06/17 09:06:13;;;;;;;8.32;3.80;;;22.80;97.80;;;;;;5073625;28;20047;-71
2022/06/17 09:08:54;;;;;;;6.95;3.17;;;23.00;96.20;;;;;;5073716;28;20103;-70
2022/06/17 09:11:51;;;;;;;8.50;3.15;;;23.20;94.10;;;;;;5073704;28;20096;-71
2022/06/17 09:14:42;;;;;;;5.78;3.35;;;23.40;94.10;;;;;;5073606;28;20020;-70
2022/06/17 09:17:19;;;;;;;4.38;3.13;;;23.70;94.20;;;;;;5074378;28;20104;-71
2022/06/17 09:19:48;;;;;;;4.40;3.10;;;23.80;94.10;;;;;;5073630;28;20048;-70
2022/06/17 09:22:22;;;;;;;6.47;3.03;;;24.00;94.10;;;;;;5073918;28;20079;-70
2022/06/17 09:24:49;;;;;;;6.55;3.15;;;24.00;92.10;;;;;;5073173;28;20472;-70
2022/06/17 09:27:21;;;;;;;3.85;2.65;;;24.00;85.30;;;;;;5073479;28;20027;-71
2022/06/17 09:30:02;;;;;;;3.40;2.40;;;24.10;75.80;;;;;;5073472;28;20609;-70
2022/06/17 09:32:42;;;;;;;4.70;2.13;;;24.20;73.80;;;;;;5073669;28;20377;-70
2022/06/17 09:35:13;;;;;;;4.73;2.50;;;24.10;71.90;;;;;;5055428;28;20043;-70
2022/06/17 09:38:01;;;;;;;5.20;2.60;;;24.10;76.90;;;;;;5073297;28;20496;-71
2022/06/17 09:40:32;;;;;;;4.18;2.55;;;24.30;72.80;;;;;;5073397;28;20120;-70
2022/06/17 09:43:21;;;;;;;4.53;2.40;;;24.20;73.40;;;;;;5073859;28;20487;-70
2022/06/17 09:45:52;;;;;;;4.57;2.40;;;24.20;70.70;;;;;;5073916;28;20480;-70
2022/06/17 09:48:36;;;;;;;4.75;2.60;;;24.30;67.00;;;;;;5073456;28;20038;-70
2022/06/17 09:51:10;;;;;;;5.57;2.60;;;24.30;70.40;;;;;;5073840;28;20021;-70
2022/06/17 09:53:47;;;;;;;4.85;2.30;;;24.50;71.80;;;;;;5073345;28;20021;-70
2022/06/17 09:56:41;;;;;;;4.55;2.33;;;24.70;71.40;;;;;;5073526;28;20035;-70
2022/06/17 09:59:15;;;;;;;3.28;2.20;;;24.70;71.70;;;;;;5034104;28;20040;-70
2022/06/17 10:01:41;;;;;;;4.60;2.28;;;24.70;70.90;;;;;;5077350;28;20055;-70
2022/06/17 10:04:12;;;;;;;4.30;2.17;;;24.60;69.80;;;;;;5077322;28;20021;-71
2022/06/17 10:06:57;;;;;;;3.38;2.60;;;24.60;71.30;;;;;;5077439;28;20020;-69
2022/06/17 10:10:04;;;;;;;4.38;2.72;;;24.60;70.90;;;;;;5076921;28;20094;-69
2022/06/17 10:12:39;;;;;;;3.92;2.10;;;24.80;68.60;;;;;;5056574;28;20459;-69
2022/06/17 10:15:28;;;;;;;3.63;2.40;;;24.70;67.80;;;;;;5077219;28;20021;-69
2022/06/17 10:18:32;;;;;;;5.45;2.40;;;24.60;68.00;;;;;;5077322;28;20477;-70
2022/06/17 10:21:28;;;;;;;4.05;2.20;;;24.40;65.00;;;;;;5077189;28;20055;-70
2022/06/17 10:24:32;;;;;;;5.43;2.60;;;24.20;64.40;;;;;;5076755;28;20093;-70
2022/06/17 10:27:04;;;;;;;8.07;2.40;;;24.00;65.70;;;;;;5056993;28;20021;-70
2022/06/17 10:29:50;;;;;;;6.43;2.65;;;23.90;65.60;;;;;;5056695;28;20099;-70
2022/06/17 10:32:15;;;;;;;4.22;2.67;;;23.90;63.70;;;;;;5057184;28;20047;-71
2022/06/17 10:34:52;;;;;;;3.58;2.58;;;23.90;67.10;;;;;;5056948;28;20021;-70
2022/06/17 10:37:18;;;;;;;5.82;2.70;;;24.00;66.30;;;;;;5056463;28;20035;-70
2022/06/17 10:39:45;;;;;;;5.80;2.40;;;24.00;64.20;;;;;;5056381;28;20025;-71
2022/06/17 10:42:15;;;;;;;7.35;2.50;;;24.00;65.70;;;;;;5056842;28;20408;-70
2022/06/17 10:44:44;;;;;;;6.53;2.55;;;24.10;66.30;;;;;;5056947;28;20017;-70
2022/06/17 10:47:40;;;;;;;5.07;2.58;;;24.10;62.80;;;;;;5056525;28;20028;-70
2022/06/17 10:50:22;;;;;;;4.00;2.40;;;24.00;64.90;;;;;;5056322;28;20052;-70
2022/06/17 10:53:05;;;;;;;4.75;2.30;;;23.90;65.70;;;;;;5038443;28;20040;-70
2022/06/17 10:55:36;;;;;;;4.20;2.38;;;24.10;65.00;;;;;;5064591;28;20499;-70
2022/06/17 10:58:07;;;;;;;4.75;2.47;;;24.40;62.00;;;;;;5058003;28;20025;-70
2022/06/17 11:00:34;;;;;;;4.82;2.42;;;24.70;66.70;;;;;;5076422;28;20029;-71
2022/06/17 11:03:40;;;;;;;4.70;2.47;;;25.00;65.50;;;;;;5057998;28;20419;-71
2022/06/17 11:06:23;;;;;;;6.65;2.30;;;25.10;61.60;;;;;;5014239;28;20057;-71
2022/06/17 11:08:49;;;;;;;3.03;2.17;;;24.90;63.20;;;;;;5072246;28;20460;-70
2022/06/17 11:14:23;;;;;;;4.43;2.30;;;25.00;62.00;;;;;;5068300;28;20078;-70
2022/06/17 11:16:49;;;;;;;3.92;2.40;;;25.10;62.20;;;;;;5074631;28;20038;-70
2022/06/17 11:19:19;;;;;;;5.72;2.90;;;25.10;61.70;;;;;;5075313;28;20029;-70
2022/06/17 11:21:49;;;;;;;3.50;1.90;;;24.90;62.60;;;;;;5069505;28;20017;-69
2022/06/17 11:24:26;;;;;;;6.13;2.28;;;24.80;64.20;;;;;;5075296;28;20259;-69
2022/06/17 11:27:02;;;;;;;3.78;2.33;;;24.70;62.70;;;;;;5057166;28;20037;-69
2022/06/17 11:29:38;;;;;;;5.78;2.40;;;24.80;66.80;;;;;;5051283;28;20020;-70
2022/06/17 11:32:27;;;;;;;3.85;2.50;;;24.70;62.80;;;;;;5070517;28;20025;-70
2022/06/17 11:35:15;;;;;;;3.53;2.20;;;24.40;63.60;;;;;;5075395;28;20028;-70
2022/06/17 11:37:41;;;;;;;4.60;2.10;;;24.70;66.00;;;;;;5072651;28;20067;-70
2022/06/17 11:40:14;;;;;;;3.97;2.28;;;24.90;65.20;;;;;;5075073;28;20025;-70
2022/06/17 11:42:50;;;;;;;4.60;2.33;;;25.10;65.80;;;;;;5057288;28;20451;-70
2022/06/17 11:45:30;;;;;;;4.88;2.90;;;25.10;62.20;;;;;;5057624;28;20020;-70
2022/06/17 11:47:59;;;;;;;4.60;2.25;;;25.10;64.60;;;;;;5075277;28;20450;-70
2022/06/17 11:50:31;;;;;;;6.53;2.50;;;25.20;63.80;;;;;;5085835;28;20031;-70
2022/06/17 11:53:05;;;;;;;5.38;2.17;;;25.40;64.90;;;;;;5095348;28;20103;-69
2022/06/17 11:55:32;;;;;;;5.07;2.17;;;25.60;58.60;;;;;;5075798;28;20025;-69
2022/06/17 11:57:59;;;;;;;9.02;2.13;;;25.80;59.20;;;;;;5070318;28;20055;-70
2022/06/17 12:00:26;;;;;;;3.70;1.90;;;26.10;58.60;;;;;;5074062;28;20024;-70
2022/06/17 12:02:53;;;;;;;2.28;1.65;;;26.30;58.60;;;;;;5075146;28;20357;-70
2022/06/17 12:05:26;;;;;;;3.95;1.83;;;26.30;55.80;;;;;;5073432;28;20025;-70
2022/06/17 12:08:04;;;;;;;4.22;1.92;;;26.30;58.40;;;;;;5074100;28;20021;-70
2022/06/17 12:10:47;;;;;;;5.95;1.90;;;26.30;57.90;;;;;;5072914;28;20028;-70
2022/06/17 12:13:19;;;;;;;;;;;26.30;58.80;;;;;;5073921;28;20024;-70
2022/06/17 12:15:49;;;;;;;;;;;26.30;59.20;;;;;;5075083;28;20364;-69
2022/06/17 12:18:34;;;;;;;;;;;26.50;60.40;;;;;;5056993;28;20415;-69
2022/06/17 12:21:29;;;;;;;3.00;1.50;;;26.70;57.70;;;;;;5074162;28;20276;-70
2022/06/17 12:23:57;;;;;;;4.47;1.88;;;26.80;58.50;;;;;;5074412;28;19908;-70
2022/06/17 12:26:33;;;;;;;5.85;1.83;;;26.90;57.40;;;;;;5074340;28;20096;-69
2022/06/17 12:29:07;;;;;;;4.13;1.95;;;27.00;55.70;;;;;;5074484;28;20020;-70
2022/06/17 12:31:52;;;;;;;3.47;1.80;;;27.10;54.30;;;;;;5074426;28;20037;-70
2022/06/17 12:34:25;;;;;;;3.65;1.88;;;27.20;54.30;;;;;;5074564;28;20441;-70
2022/06/17 12:36:55;;;;;;;2.05;1.35;;;27.30;55.80;;;;;;5074885;28;20108;-69
2022/06/17 12:39:42;;;;;;;5.15;2.38;;;27.30;55.30;;;;;;5056170;28;20025;-70
2022/06/17 12:42:25;;;;;;;4.20;1.50;;;27.30;54.20;;;;;;5074169;28;20025;-70
2022/06/17 12:44:57;;;;;;;3.60;1.65;;;27.40;56.00;;;;;;5074129;28;20468;-70
2022/06/17 12:47:36;;;;;;;3.35;1.58;;;27.40;55.30;;;;;;5074138;28;20024;-70
2022/06/17 12:53:34;;;;;;;3.97;1.70;;;27.60;54.20;;;;;;5074052;28;20028;-70
2022/06/17 12:56:41;;;;;;;3.63;1.77;;;27.80;53.70;;;;;;5074061;28;20024;-70
2022/06/17 12:59:36;;;;;;;3.05;1.70;;;27.50;53.10;;;;;;5065563;28;20519;-70
2022/06/17 13:02:18;;;;;;;2.67;1.17;;;27.50;51.10;;;;;;5056116;28;20058;-69
2022/06/17 13:05:20;;;;;;;2.67;1.30;;;27.40;48.10;;;;;;5073925;28;20066;-69
2022/06/17 13:07:55;;;;;;;4.03;1.50;;;27.30;49.50;;;;;;5074336;28;20529;-69
2022/06/17 13:10:40;;;;;;;2.40;1.38;;;26.90;50.50;;;;;;5073552;28;20048;-69
2022/06/17 13:13:21;;;;;;;1.95;1.30;;;26.80;48.80;;;;;;5073949;28;20099;-69
2022/06/17 13:15:52;;;;;;;;;;;26.90;49.50;;;;;;5074017;28;20392;-69
2022/06/17 13:18:56;;;;;;;4.25;1.50;;;27.00;48.40;;;;;;5073895;28;19904;-69
2022/06/17 13:21:34;;;;;;;2.13;1.23;;;27.00;47.60;;;;;;5070347;28;20044;-69
2022/06/17 13:24:11;;;;;;;3.85;1.75;;;26.90;48.40;;;;;;5073262;28;20047;-69
2022/06/17 13:27:02;;;;;;;5.03;1.80;;;26.80;49.40;;;;;;5073423;28;20492;-69
2022/06/17 13:29:36;;;;;;;;;;;26.70;49.30;;;;;;5073887;28;20056;-70
2022/06/17 13:32:18;;;;;;;4.82;1.63;;;26.60;49.30;;;;;;5073704;28;19989;-69
2022/06/17 13:34:56;;;;;;;2.83;1.42;;;26.80;50.50;;;;;;5073534;28;20384;-69